createdAt,value
2023-02-19T00:01:36.991Z,6.53
2023-02-19T00:04:07.092Z,6.50
2023-02-19T00:06:36.743Z,5.25
2023-02-19T00:09:05.284Z,5.88
2023-02-19T00:11:34.838Z,5.13
2023-02-19T00:14:04.173Z,5.07
2023-02-19T00:16:33.508Z,5.72
2023-02-19T00:19:02.308Z,4.25
2023-02-19T00:21:30.748Z,4.30
2023-02-19T00:24:01.133Z,3.85
2023-02-19T00:26:28.951Z,3.80
2023-02-19T00:28:57.792Z,3.70
2023-02-19T00:31:26.851Z,3.75
2023-02-19T00:33:56.380Z,3.70
2023-02-19T00:36:24.875Z,3.35
2023-02-19T00:38:52.577Z,3.60
2023-02-19T00:41:22.923Z,3.90
2023-02-19T00:43:52.014Z,4.60
2023-02-19T00:46:21.127Z,4.77
2023-02-19T00:48:49.159Z,4.82
2023-02-19T00:51:17.246Z,5.53
2023-02-19T00:53:44.934Z,4.53
2023-02-19T00:56:12.872Z,5.10
2023-02-19T00:58:41.832Z,4.90
2023-02-19T01:01:10.251Z,4.60
2023-02-19T01:03:39.071Z,4.97
2023-02-19T01:06:07.877Z,4.50
2023-02-19T01:08:35.936Z,4.20
2023-02-19T01:11:05.164Z,4.00
2023-02-19T01:13:33.005Z,4.00
2023-02-19T01:16:05.575Z,4.25
2023-02-19T01:18:33.412Z,3.75
2023-02-19T01:21:01.006Z,3.78
2023-02-19T01:23:28.607Z,4.43
2023-02-19T01:25:56.210Z,4.03
2023-02-19T01:28:23.832Z,3.90
2023-02-19T01:30:51.398Z,4.47
2023-02-19T01:33:20.339Z,4.93
2023-02-19T01:35:47.924Z,4.57
2023-02-19T01:38:15.492Z,4.55
2023-02-19T01:40:43.111Z,4.05
2023-02-19T01:43:16.872Z,4.70
2023-02-19T01:45:45.750Z,5.20
2023-02-19T01:48:15.754Z,5.05
2023-02-19T01:50:48.815Z,5.18
2023-02-19T01:53:19.324Z,5.40
2023-02-19T01:55:48.178Z,4.82
2023-02-19T01:58:16.130Z,5.10
2023-02-19T02:00:43.791Z,5.15
2023-02-19T02:03:11.764Z,5.35
2023-02-19T02:05:47.577Z,4.90
2023-02-19T02:08:33.190Z,5.18
2023-02-19T02:11:00.909Z,5.10
2023-02-19T02:13:28.685Z,4.45
2023-02-19T02:16:03.668Z,5.47
2023-02-19T02:18:42.702Z,4.65
2023-02-19T02:21:37.910Z,4.97
2023-02-19T02:24:18.919Z,4.68
2023-02-19T02:26:53.235Z,4.32
2023-02-19T02:29:33.314Z,4.35
2023-02-19T02:32:05.018Z,4.45
2023-02-19T02:34:37.254Z,4.10
2023-02-19T02:37:05.388Z,4.28
2023-02-19T02:39:33.951Z,4.10
2023-02-19T02:42:19.215Z,3.90
2023-02-19T02:45:07.514Z,4.47
2023-02-19T02:47:44.930Z,3.80
2023-02-19T02:50:16.219Z,3.80
2023-02-19T02:53:02.222Z,4.23
2023-02-19T02:55:32.327Z,4.10
2023-02-19T02:58:00.123Z,4.10
2023-02-19T03:00:49.088Z,4.63
2023-02-19T03:03:17.790Z,4.40
2023-02-19T03:05:54.853Z,4.82
2023-02-19T03:08:26.319Z,4.57
2023-02-19T03:10:56.298Z,5.22
2023-02-19T03:13:46.728Z,4.72
2023-02-19T03:16:36.216Z,5.78
2023-02-19T03:19:20.958Z,5.53
2023-02-19T03:21:52.986Z,6.60
2023-02-19T03:24:41.070Z,6.18
2023-02-19T03:27:10.254Z,6.43
2023-02-19T03:29:39.824Z,5.90
2023-02-19T03:32:10.789Z,5.85
2023-02-19T03:34:43.768Z,5.85
2023-02-19T03:37:13.695Z,5.45
2023-02-19T03:39:45.275Z,5.17
2023-02-19T03:42:19.772Z,4.80
2023-02-19T03:44:56.347Z,5.00
2023-02-19T03:47:26.247Z,5.22
2023-02-19T03:49:57.919Z,4.72
2023-02-19T03:52:31.593Z,5.13
2023-02-19T03:55:03.026Z,5.35
2023-02-19T03:57:37.086Z,5.40
2023-02-19T04:00:07.503Z,5.45
2023-02-19T04:02:36.686Z,5.25
2023-02-19T04:05:08.903Z,5.00
2023-02-19T04:07:39.419Z,4.63
2023-02-19T04:10:09.084Z,5.25
2023-02-19T04:12:38.413Z,5.32
2023-02-19T04:15:10.175Z,4.88
2023-02-19T04:17:40.472Z,4.85
2023-02-19T04:20:11.452Z,4.95
2023-02-19T04:22:39.820Z,4.65
2023-02-19T04:25:09.103Z,4.70
2023-02-19T04:27:37.396Z,4.75
2023-02-19T04:30:05.895Z,4.80
2023-02-19T04:32:33.550Z,4.78
2023-02-19T04:35:01.237Z,4.93
2023-02-19T04:37:30.190Z,4.80
2023-02-19T04:39:58.079Z,4.93
2023-02-19T04:42:25.704Z,4.63
2023-02-19T04:44:53.316Z,4.82
2023-02-19T04:47:20.970Z,5.13
2023-02-19T04:49:48.658Z,4.97
2023-02-19T04:52:16.258Z,5.25
2023-02-19T04:54:45.157Z,5.60
2023-02-19T04:57:12.840Z,5.18
2023-02-19T04:59:40.463Z,6.03
2023-02-19T05:02:08.035Z,6.20
2023-02-19T05:04:35.818Z,5.57
2023-02-19T05:07:03.459Z,5.43
2023-02-19T05:09:31.069Z,5.63
2023-02-19T05:12:00.145Z,5.32
2023-02-19T05:14:27.767Z,6.00
2023-02-19T05:16:55.343Z,6.03
2023-02-19T05:19:22.931Z,5.78
2023-02-19T05:21:50.476Z,5.47
2023-02-19T05:24:18.047Z,5.93
2023-02-19T05:26:45.673Z,6.05
2023-02-19T05:29:14.703Z,6.18
2023-02-19T05:31:42.414Z,5.72
2023-02-19T05:34:10.137Z,5.35
2023-02-19T05:36:38.638Z,5.65
2023-02-19T05:39:07.425Z,4.68
2023-02-19T05:41:35.147Z,5.40
2023-02-19T05:44:02.770Z,5.93
2023-02-19T05:46:32.292Z,5.57
2023-02-19T05:48:59.974Z,5.68
2023-02-19T05:51:28.426Z,5.28
2023-02-19T05:53:57.399Z,5.35
2023-02-19T05:56:32.171Z,5.97
2023-02-19T05:59:00.434Z,5.90
2023-02-19T06:01:29.312Z,6.18
2023-02-19T06:03:59.072Z,6.43
2023-02-19T06:06:27.585Z,6.13
2023-02-19T06:08:55.352Z,5.72
2023-02-19T06:11:23.289Z,5.90
2023-02-19T06:13:51.280Z,6.07
2023-02-19T06:16:19.784Z,6.87
2023-02-19T06:18:47.522Z,6.38
2023-02-19T06:21:17.414Z,7.03
2023-02-19T06:23:45.322Z,6.97
2023-02-19T06:26:14.982Z,7.38
2023-02-19T06:28:44.463Z,9.15
2023-02-19T06:31:13.048Z,8.77
2023-02-19T06:33:41.438Z,9.57
2023-02-19T06:36:12.130Z,8.30
2023-02-19T06:38:41.148Z,8.65
2023-02-19T06:41:10.523Z,8.55
2023-02-19T06:43:38.400Z,9.30
2023-02-19T06:46:07.332Z,8.25
2023-02-19T06:48:35.691Z,8.20
2023-02-19T06:51:03.661Z,8.52
2023-02-19T06:53:31.424Z,8.43
2023-02-19T06:56:01.808Z,6.90
2023-02-19T06:58:29.983Z,6.15
2023-02-19T07:00:57.716Z,5.47
2023-02-19T07:03:26.235Z,5.30
2023-02-19T07:05:54.508Z,4.50
2023-02-19T07:08:22.176Z,3.92
2023-02-19T07:10:56.280Z,3.40
2023-02-19T07:13:26.693Z,3.38
2023-02-19T07:16:00.062Z,3.65
2023-02-19T07:18:27.952Z,3.10
2023-02-19T07:20:55.547Z,3.30
2023-02-19T07:23:23.161Z,3.47
2023-02-19T07:25:50.768Z,5.10
2023-02-19T07:28:18.469Z,3.10
2023-02-19T07:30:47.456Z,2.83
2023-02-19T07:33:15.039Z,2.03
2023-02-19T07:35:46.840Z,1.67
2023-02-19T07:38:16.880Z,1.42
2023-02-19T07:40:51.858Z,1.30
2023-02-19T07:43:19.501Z,1.50
2023-02-19T07:45:48.696Z,1.70
2023-02-19T07:48:16.337Z,1.70
2023-02-19T07:50:43.964Z,2.40
2023-02-19T07:53:11.543Z,2.67
2023-02-19T07:55:39.132Z,2.70
2023-02-19T07:58:06.702Z,2.40
2023-02-19T08:00:34.285Z,2.55
2023-02-19T08:03:03.316Z,2.90
2023-02-19T08:05:32.898Z,2.90
2023-02-19T08:08:01.006Z,3.97
2023-02-19T08:10:42.867Z,3.90
2023-02-19T08:13:22.674Z,3.72
2023-02-19T08:15:51.251Z,4.10
2023-02-19T08:18:21.598Z,4.13
2023-02-19T08:20:49.380Z,4.03
2023-02-19T08:23:17.437Z,3.97
2023-02-19T08:25:45.128Z,4.25
2023-02-19T08:28:12.892Z,4.32
2023-02-19T08:30:42.113Z,4.22
2023-02-19T08:33:09.956Z,3.55
2023-02-19T08:35:39.019Z,3.38
2023-02-19T08:38:07.717Z,2.05
2023-02-19T08:40:35.440Z,2.50
2023-02-19T08:43:04.272Z,2.92
2023-02-19T08:45:31.915Z,3.10
2023-02-19T08:47:59.892Z,2.65
2023-02-19T08:50:27.787Z,2.30
2023-02-19T08:52:56.733Z,2.10
2023-02-19T08:55:24.296Z,1.80
2023-02-19T08:57:52.065Z,1.80
2023-02-19T09:00:21.294Z,2.15
2023-02-19T09:02:48.870Z,2.20
2023-02-19T09:05:16.842Z,2.30
2023-02-19T09:07:44.917Z,1.80
2023-02-19T09:10:15.147Z,1.80
2023-02-19T09:12:42.898Z,1.75
2023-02-19T09:15:10.723Z,1.83
2023-02-19T09:17:38.320Z,1.60
2023-02-19T09:20:06.411Z,1.48
2023-02-19T09:22:35.027Z,1.10
2023-02-19T09:25:02.603Z,1.40
2023-02-19T09:27:32.218Z,1.60
2023-02-19T09:29:59.908Z,0.95
2023-02-19T09:32:27.493Z,0.60
2023-02-19T09:34:55.046Z,0.60
2023-02-19T09:37:26.476Z,0.50
2023-02-19T09:39:54.166Z,0.40
2023-02-19T09:42:24.426Z,0.40
2023-02-19T09:44:55.346Z,0.60
2023-02-19T09:47:24.859Z,0.50
2023-02-19T09:49:55.352Z,0.55
2023-02-19T09:52:29.840Z,0.50
2023-02-19T09:55:00.318Z,0.73
2023-02-19T09:57:29.474Z,2.10
2023-02-19T10:00:03.433Z,0.40
2023-02-19T10:02:31.331Z,0.57
2023-02-19T10:04:59.813Z,0.20
2023-02-19T10:07:34.579Z,0.30
2023-02-19T10:10:07.258Z,0.40
2023-02-19T10:12:35.124Z,1.07
2023-02-19T10:15:08.913Z,2.10
2023-02-19T10:17:37.371Z,0.60
2023-02-19T10:20:05.645Z,0.50
2023-02-19T10:22:33.948Z,0.30
2023-02-19T10:25:01.600Z,0.30
2023-02-19T10:27:31.815Z,0.20
2023-02-19T10:30:00.286Z,0.50
2023-02-19T10:32:29.736Z,0.30
2023-02-19T10:35:12.415Z,0.40
2023-02-19T10:37:44.384Z,0.60
2023-02-19T10:40:17.382Z,0.30
2023-02-19T10:42:47.201Z,0.40
2023-02-19T10:45:20.344Z,0.20
2023-02-19T10:47:49.517Z,0.30
2023-02-19T10:50:22.675Z,0.30
2023-02-19T10:52:53.774Z,0.20
2023-02-19T10:55:30.338Z,0.10
2023-02-19T10:57:58.621Z,0.30
2023-02-19T11:00:28.907Z,0.20
2023-02-19T11:03:20.555Z,0.20
2023-02-19T11:05:54.579Z,0.60
2023-02-19T11:08:23.318Z,0.43
2023-02-19T11:10:51.124Z,1.90
2023-02-19T11:13:23.376Z,0.57
2023-02-19T11:15:52.619Z,0.20
2023-02-19T11:18:24.078Z,0.30
2023-02-19T11:20:54.366Z,0.50
2023-02-19T11:23:26.259Z,0.35
2023-02-19T11:25:56.378Z,0.98
2023-02-19T11:28:32.154Z,0.50
2023-02-19T11:31:16.589Z,0.30
2023-02-19T11:33:47.252Z,0.82
2023-02-19T11:36:29.786Z,0.70
2023-02-19T11:38:59.037Z,1.70
2023-02-19T11:41:38.823Z,0.60
2023-02-19T11:44:17.601Z,0.40
2023-02-19T11:46:52.522Z,0.50
2023-02-19T11:49:28.911Z,0.60
2023-02-19T11:52:08.583Z,0.83
2023-02-19T11:54:52.566Z,1.00
2023-02-19T11:57:29.693Z,0.95
2023-02-19T12:00:05.145Z,0.77
2023-02-19T12:02:44.236Z,0.70
2023-02-19T12:05:20.106Z,0.80
2023-02-19T12:08:10.951Z,0.90
2023-02-19T12:10:47.696Z,0.88
2023-02-19T12:13:20.019Z,0.70
2023-02-19T12:15:59.049Z,0.80
2023-02-19T12:18:59.966Z,0.70
2023-02-19T12:21:42.016Z,0.68
2023-02-19T12:24:28.867Z,0.70
2023-02-19T12:27:06.928Z,0.80
2023-02-19T12:29:57.719Z,1.15
2023-02-19T12:32:42.204Z,0.50
2023-02-19T12:35:24.143Z,0.63
2023-02-19T12:38:01.245Z,0.50
2023-02-19T12:40:39.334Z,0.85
2023-02-19T12:43:13.088Z,0.30
2023-02-19T12:45:45.041Z,0.70
2023-02-19T12:48:18.133Z,0.70
2023-02-19T12:50:47.362Z,0.20
2023-02-19T12:53:26.094Z,0.50
2023-02-19T12:55:53.819Z,0.50
2023-02-19T12:58:28.432Z,0.40
2023-02-19T13:00:58.999Z,0.30
2023-02-19T13:03:31.643Z,0.38
2023-02-19T13:06:04.603Z,0.30
2023-02-19T13:08:39.569Z,0.50
2023-02-19T13:11:12.143Z,0.90
2023-02-19T13:13:43.566Z,1.00
2023-02-19T13:16:18.496Z,0.50
2023-02-19T13:18:49.778Z,0.50
2023-02-19T13:21:39.566Z,0.60
2023-02-19T13:24:13.089Z,0.65
2023-02-19T13:26:53.005Z,0.40
2023-02-19T13:29:30.808Z,0.50
2023-02-19T13:32:12.769Z,0.80
2023-02-19T13:34:51.657Z,0.40
2023-02-19T13:37:19.791Z,0.38
2023-02-19T13:39:50.352Z,0.50
2023-02-19T13:42:26.507Z,0.43
2023-02-19T13:44:57.931Z,0.30
2023-02-19T13:47:49.171Z,0.60
2023-02-19T13:50:23.025Z,0.50
2023-02-19T13:52:51.106Z,0.50
2023-02-19T13:56:01.317Z,0.40
2023-02-19T13:58:53.687Z,0.40
2023-02-19T14:01:56.225Z,0.45
2023-02-19T14:04:25.759Z,0.52
2023-02-19T14:07:37.903Z,0.30
2023-02-19T14:10:08.982Z,0.70
2023-02-19T14:12:37.225Z,0.50
2023-02-19T14:15:40.615Z,0.50
2023-02-19T14:18:41.805Z,0.30
2023-02-19T14:21:17.280Z,0.70
2023-02-19T14:23:45.827Z,0.68
2023-02-19T14:26:13.761Z,0.70
2023-02-19T14:28:46.093Z,0.50
2023-02-19T14:31:22.436Z,0.70
2023-02-19T14:33:51.931Z,0.40
2023-02-19T14:36:27.738Z,0.80
2023-02-19T14:38:57.622Z,0.57
2023-02-19T14:41:25.917Z,0.80
2023-02-19T14:43:55.878Z,0.60
2023-02-19T14:46:31.116Z,0.50
2023-02-19T14:49:01.412Z,0.60
2023-02-19T14:51:32.912Z,0.60
2023-02-19T14:54:02.548Z,0.40
2023-02-19T14:56:34.449Z,0.65
2023-02-19T14:59:25.092Z,0.40
2023-02-19T15:01:58.455Z,0.50
2023-02-19T15:04:28.100Z,0.55
2023-02-19T15:06:57.025Z,0.70
2023-02-19T15:09:31.462Z,0.60
2023-02-19T15:11:59.758Z,0.40
2023-02-19T15:14:30.660Z,0.40
2023-02-19T15:17:02.325Z,0.30
2023-02-19T15:19:30.772Z,0.50
2023-02-19T15:21:58.344Z,0.50
2023-02-19T15:24:26.118Z,0.55
2023-02-19T15:26:54.425Z,0.57
2023-02-19T15:29:24.171Z,0.50
2023-02-19T15:31:53.821Z,0.40
2023-02-19T15:34:24.522Z,0.68
2023-02-19T15:36:54.043Z,0.80
2023-02-19T15:39:24.076Z,0.98
2023-02-19T15:42:00.009Z,0.90
2023-02-19T15:44:35.859Z,1.00
2023-02-19T15:47:09.753Z,0.60
2023-02-19T15:49:45.662Z,0.32
2023-02-19T15:52:18.757Z,0.30
2023-02-19T15:54:50.300Z,0.40
2023-02-19T15:57:20.587Z,0.30
2023-02-19T15:59:50.856Z,0.90
2023-02-19T16:02:18.720Z,0.40
2023-02-19T16:04:48.155Z,0.70
2023-02-19T16:07:25.279Z,0.70
2023-02-19T16:10:07.473Z,0.60
2023-02-19T16:12:35.098Z,0.43
2023-02-19T16:15:13.375Z,0.50
2023-02-19T16:17:43.495Z,0.90
2023-02-19T16:20:21.781Z,0.32
2023-02-19T16:22:49.910Z,0.45
2023-02-19T16:25:34.013Z,0.57
2023-02-19T16:28:11.203Z,0.50
2023-02-19T16:30:39.017Z,0.55
2023-02-19T16:33:28.409Z,0.80
2023-02-19T16:35:57.306Z,1.00
2023-02-19T16:38:24.995Z,0.55
2023-02-19T16:41:12.631Z,0.43
2023-02-19T16:43:42.150Z,0.40
2023-02-19T16:46:12.108Z,0.90
2023-02-19T16:48:39.915Z,0.60
2023-02-19T16:51:10.334Z,0.70
2023-02-19T16:53:38.163Z,0.70
2023-02-19T16:56:06.331Z,0.52
2023-02-19T16:58:33.933Z,0.52
2023-02-19T17:01:01.810Z,0.60
2023-02-19T17:03:29.450Z,1.77
2023-02-19T17:05:57.226Z,1.10
2023-02-19T17:08:34.027Z,0.88
2023-02-19T17:11:03.053Z,0.80
2023-02-19T17:13:31.972Z,0.80
2023-02-19T17:16:00.075Z,0.75
2023-02-19T17:18:27.936Z,0.80
2023-02-19T17:20:58.046Z,0.70
2023-02-19T17:23:25.612Z,0.70
2023-02-19T17:25:54.525Z,0.90
2023-02-19T17:28:22.098Z,0.40
2023-02-19T17:30:49.720Z,0.50
2023-02-19T17:33:17.294Z,0.50
2023-02-19T17:35:45.418Z,0.43
2023-02-19T17:38:13.338Z,0.47
2023-02-19T17:40:40.975Z,0.52
2023-02-19T17:43:09.911Z,0.50
2023-02-19T17:45:37.482Z,0.22
2023-02-19T17:48:05.453Z,0.40
2023-02-19T17:50:33.605Z,0.50
2023-02-19T17:53:01.210Z,0.73
2023-02-19T17:55:28.845Z,0.80
2023-02-19T17:57:56.503Z,0.80
2023-02-19T18:00:27.546Z,0.60
2023-02-19T18:02:55.371Z,0.43
2023-02-19T18:05:23.188Z,0.80
2023-02-19T18:07:51.049Z,1.23
2023-02-19T18:10:20.345Z,1.08
2023-02-19T18:12:48.377Z,1.10
2023-02-19T18:15:18.289Z,1.10
2023-02-19T18:17:47.146Z,1.00
2023-02-19T18:20:15.680Z,1.40
2023-02-19T18:22:43.502Z,1.10
2023-02-19T18:25:11.533Z,1.30
2023-02-19T18:27:39.297Z,1.50
2023-02-19T18:30:08.257Z,1.10
2023-02-19T18:32:36.119Z,1.20
2023-02-19T18:35:05.616Z,1.27
2023-02-19T18:37:33.887Z,1.20
2023-02-19T18:40:02.071Z,1.17
2023-02-19T18:42:29.805Z,1.40
2023-02-19T18:44:57.728Z,1.67
2023-02-19T18:47:26.261Z,2.08
2023-02-19T18:49:55.737Z,2.00
2023-02-19T18:52:25.906Z,2.00
2023-02-19T18:54:55.068Z,2.30
2023-02-19T18:57:24.140Z,1.80
2023-02-19T18:59:52.037Z,1.30
2023-02-19T19:02:20.475Z,1.58
2023-02-19T19:04:50.485Z,1.67
2023-02-19T19:07:18.547Z,1.60
2023-02-19T19:09:47.667Z,1.27
2023-02-19T19:12:15.803Z,1.70
2023-02-19T19:14:43.631Z,1.33
2023-02-19T19:17:11.315Z,1.40
2023-02-19T19:19:40.231Z,1.13
2023-02-19T19:22:07.965Z,1.20
2023-02-19T19:24:35.608Z,1.40
2023-02-19T19:27:04.685Z,1.40
2023-02-19T19:29:32.454Z,1.23
2023-02-19T19:32:00.143Z,1.17
2023-02-19T19:34:27.880Z,1.03
2023-02-19T19:36:55.529Z,1.13
2023-02-19T19:39:23.202Z,1.25
2023-02-19T19:41:54.842Z,1.00
2023-02-19T19:44:23.962Z,1.05
2023-02-19T19:46:51.610Z,0.82
2023-02-19T19:49:19.686Z,0.90
2023-02-19T19:51:47.899Z,0.60
2023-02-19T19:54:16.105Z,0.90
2023-02-19T19:56:45.420Z,1.13
2023-02-19T19:59:13.542Z,0.70
2023-02-19T20:01:48.886Z,0.80
2023-02-19T20:04:16.572Z,0.60
2023-02-19T20:06:44.163Z,0.70
2023-02-19T20:09:11.819Z,0.75
2023-02-19T20:11:45.296Z,1.30
2023-02-19T20:14:12.892Z,1.20
2023-02-19T20:16:43.859Z,0.85
2023-02-19T20:19:12.374Z,0.60
2023-02-19T20:21:40.071Z,0.88
2023-02-19T20:24:08.129Z,0.98
2023-02-19T20:26:35.746Z,0.80
2023-02-19T20:29:04.276Z,0.65
2023-02-19T20:31:32.103Z,0.80
2023-02-19T20:34:01.562Z,0.53
2023-02-19T20:36:29.387Z,0.60
2023-02-19T20:38:57.112Z,0.70
2023-02-19T20:41:24.756Z,0.95
2023-02-19T20:43:52.333Z,0.75
2023-02-19T20:46:19.886Z,0.82
2023-02-19T20:48:47.578Z,0.90
2023-02-19T20:51:16.596Z,1.27
2023-02-19T20:53:44.257Z,1.17
2023-02-19T20:56:12.564Z,1.48
2023-02-19T20:58:42.799Z,1.35
2023-02-19T21:01:11.703Z,1.70
2023-02-19T21:03:39.342Z,1.80
2023-02-19T21:06:07.535Z,1.60
2023-02-19T21:08:36.472Z,2.37
2023-02-19T21:11:04.067Z,3.20
2023-02-19T21:13:31.630Z,3.05
2023-02-19T21:15:59.314Z,3.15
2023-02-19T21:18:27.002Z,3.63
2023-02-19T21:20:54.557Z,4.18
2023-02-19T21:23:22.124Z,4.60
2023-02-19T21:25:53.642Z,3.90
2023-02-19T21:28:22.196Z,4.22
2023-02-19T21:30:49.952Z,4.25
2023-02-19T21:33:17.656Z,3.80
2023-02-19T21:35:45.912Z,4.18
2023-02-19T21:38:13.610Z,4.30
2023-02-19T21:40:41.199Z,4.70
2023-02-19T21:43:10.197Z,4.82
2023-02-19T21:45:37.847Z,5.47
2023-02-19T21:48:06.030Z,5.88
2023-02-19T21:50:33.644Z,5.80
2023-02-19T21:53:01.415Z,6.30
2023-02-19T21:55:29.197Z,6.20
2023-02-19T21:57:56.787Z,5.88
2023-02-19T22:00:25.762Z,5.95
2023-02-19T22:02:53.401Z,6.60
2023-02-19T22:05:21.081Z,6.72
2023-02-19T22:07:48.821Z,6.22
2023-02-19T22:10:16.709Z,6.63
2023-02-19T22:12:44.354Z,6.32
2023-02-19T22:15:11.967Z,6.82
2023-02-19T22:17:40.986Z,6.80
2023-02-19T22:20:09.121Z,6.50
2023-02-19T22:22:36.893Z,7.07
2023-02-19T22:25:04.658Z,6.82
2023-02-19T22:27:32.256Z,7.10
2023-02-19T22:29:59.888Z,7.47
2023-02-19T22:32:27.698Z,7.10
2023-02-19T22:34:56.783Z,7.75
2023-02-19T22:37:24.371Z,7.47
2023-02-19T22:39:51.991Z,7.20
2023-02-19T22:42:19.714Z,7.70
2023-02-19T22:44:47.301Z,7.10
2023-02-19T22:47:14.912Z,6.30
2023-02-19T22:49:43.844Z,6.70
2023-02-19T22:52:13.811Z,6.50
2023-02-19T22:54:41.442Z,6.45
2023-02-19T22:57:09.401Z,6.03
2023-02-19T22:59:37.128Z,6.22
2023-02-19T23:02:04.789Z,6.00
2023-02-19T23:04:32.539Z,5.88
2023-02-19T23:07:00.187Z,6.70
2023-02-19T23:09:30.086Z,5.68
2023-02-19T23:12:02.925Z,6.00
2023-02-19T23:14:30.550Z,6.22
2023-02-19T23:16:58.276Z,6.18
2023-02-19T23:19:26.136Z,6.78
2023-02-19T23:21:54.354Z,6.30
2023-02-19T23:24:21.978Z,5.87
2023-02-19T23:26:52.152Z,6.17
2023-02-19T23:29:21.283Z,6.43
2023-02-19T23:31:48.998Z,5.87
2023-02-19T23:34:16.819Z,5.80
2023-02-19T23:36:45.505Z,5.22
2023-02-19T23:39:15.319Z,5.57
2023-02-19T23:41:47.467Z,5.60
2023-02-19T23:44:16.569Z,5.20
2023-02-19T23:46:44.554Z,5.22
2023-02-19T23:49:12.217Z,5.45
2023-02-19T23:51:39.862Z,4.90
2023-02-19T23:54:07.480Z,5.20
2023-02-19T23:56:35.389Z,4.70
2023-02-19T23:59:02.986Z,4.97
